sensor_id;sensor_type;location;lat;lon;timestamp;pressure;altitude;pressure_sealevel;temperature;humidity
21753;BME280;11038;50.940;20.564;2022-07-23T00:01:11;97825.81;;;23.21;62.65
21753;BME280;11038;50.940;20.564;2022-07-23T00:02:44;97824.19;;;23.20;62.94
21753;BME280;11038;50.940;20.564;2022-07-23T00:04:16;97827.47;;;23.22;62.66
21753;BME280;11038;50.940;20.564;2022-07-23T00:05:48;97829.63;;;23.20;62.71
21753;BME280;11038;50.940;20.564;2022-07-23T00:07:21;97834.25;;;23.19;62.62
21753;BME280;11038;50.940;20.564;2022-07-23T00:08:53;97828.47;;;23.16;62.61
21753;BME280;11038;50.940;20.564;2022-07-23T00:10:25;97830.38;;;23.15;63.00
21753;BME280;11038;50.940;20.564;2022-07-23T00:11:58;97832.25;;;23.15;62.86
21753;BME280;11038;50.940;20.564;2022-07-23T00:13:30;97832.25;;;23.15;62.83
21753;BME280;11038;50.940;20.564;2022-07-23T00:15:04;97824.69;;;23.17;62.39
21753;BME280;11038;50.940;20.564;2022-07-23T00:16:36;97829.31;;;23.16;62.44
21753;BME280;11038;50.940;20.564;2022-07-23T00:18:09;97828.47;;;23.16;62.05
21753;BME280;11038;50.940;20.564;2022-07-23T00:19:41;97828.75;;;23.14;61.94
21753;BME280;11038;50.940;20.564;2022-07-23T00:21:13;97829.81;;;23.13;62.40
21753;BME280;11038;50.940;20.564;2022-07-23T00:22:47;97830.31;;;23.10;62.29
21753;BME280;11038;50.940;20.564;2022-07-23T00:24:19;97826.75;;;23.09;62.53
21753;BME280;11038;50.940;20.564;2022-07-23T00:25:51;97831.63;;;23.07;62.42
21753;BME280;11038;50.940;20.564;2022-07-23T00:27:24;97833.84;;;23.10;62.29
21753;BME280;11038;50.940;20.564;2022-07-23T00:28:56;97834.19;;;23.14;62.16
21753;BME280;11038;50.940;20.564;2022-07-23T00:30:30;97837.72;;;23.15;61.88
21753;BME280;11038;50.940;20.564;2022-07-23T00:32:02;97827.41;;;23.17;61.90
21753;BME280;11038;50.940;20.564;2022-07-23T00:33:35;97834.50;;;23.18;61.88
21753;BME280;11038;50.940;20.564;2022-07-23T00:35:07;97831.53;;;23.19;61.95
21753;BME280;11038;50.940;20.564;2022-07-23T00:36:40;97834.75;;;23.16;62.16
21753;BME280;11038;50.940;20.564;2022-07-23T00:38:13;97839.72;;;23.19;61.59
21753;BME280;11038;50.940;20.564;2022-07-23T00:39:45;97837.72;;;23.15;61.90
21753;BME280;11038;50.940;20.564;2022-07-23T00:41:17;97836.09;;;23.14;61.84
21753;BME280;11038;50.940;20.564;2022-07-23T00:42:49;97838.31;;;23.17;61.66
21753;BME280;11038;50.940;20.564;2022-07-23T00:44:24;97838.53;;;23.15;61.40
21753;BME280;11038;50.940;20.564;2022-07-23T00:45:56;97837.72;;;23.15;61.44
21753;BME280;11038;50.940;20.564;2022-07-23T00:47:29;97837.97;;;23.13;61.52
21753;BME280;11038;50.940;20.564;2022-07-23T00:49:02;97842.59;;;23.13;61.31
21753;BME280;11038;50.940;20.564;2022-07-23T00:50:35;97845.31;;;23.13;61.50
21753;BME280;11038;50.940;20.564;2022-07-23T00:52:07;97838.81;;;23.14;61.28
21753;BME280;11038;50.940;20.564;2022-07-23T00:53:39;97841.53;;;23.14;60.89
21753;BME280;11038;50.940;20.564;2022-07-23T00:55:12;97846.41;;;23.11;61.00
21753;BME280;11038;50.940;20.564;2022-07-23T00:56:45;97839.03;;;23.12;60.82
21753;BME280;11038;50.940;20.564;2022-07-23T00:58:18;97840.38;;;23.09;61.32
21753;BME280;11038;50.940;20.564;2022-07-23T00:59:50;97843.91;;;23.10;61.07
21753;BME280;11038;50.940;20.564;2022-07-23T01:01:23;97842.28;;;23.09;61.35
21753;BME280;11038;50.940;20.564;2022-07-23T01:02:55;97846.34;;;23.06;61.14
21753;BME280;11038;50.940;20.564;2022-07-23T01:04:27;97840.06;;;23.06;61.35
21753;BME280;11038;50.940;20.564;2022-07-23T01:05:59;97843.03;;;23.04;61.32
21753;BME280;11038;50.940;20.564;2022-07-23T01:07:32;97839.22;;;23.05;61.52
21753;BME280;11038;50.940;20.564;2022-07-23T01:09:06;97843.63;;;23.06;61.69
21753;BME280;11038;50.940;20.564;2022-07-23T01:10:38;97838.97;;;23.07;61.33
21753;BME280;11038;50.940;20.564;2022-07-23T01:12:10;97837.06;;;23.07;61.47
21753;BME280;11038;50.940;20.564;2022-07-23T01:13:43;97834.63;;;23.06;61.35
21753;BME280;11038;50.940;20.564;2022-07-23T01:15:15;97841.47;;;23.08;61.60
21753;BME280;11038;50.940;20.564;2022-07-23T01:16:48;97834.34;;;23.07;61.53
21753;BME280;11038;50.940;20.564;2022-07-23T01:18:21;97829.16;;;23.06;61.17
21753;BME280;11038;50.940;20.564;2022-07-23T01:19:53;97834.91;;;23.09;61.34
21753;BME280;11038;50.940;20.564;2022-07-23T01:21:25;97834.28;;;23.02;61.46
21753;BME280;11038;50.940;20.564;2022-07-23T01:22:58;97827.44;;;22.99;61.50
21753;BME280;11038;50.940;20.564;2022-07-23T01:24:30;97829.31;;;22.99;61.51
21753;BME280;11038;50.940;20.564;2022-07-23T01:26:03;97834.22;;;22.97;61.72
21753;BME280;11038;50.940;20.564;2022-07-23T01:27:35;97834.47;;;22.95;61.43
21753;BME280;11038;50.940;20.564;2022-07-23T01:29:07;97832.56;;;22.96;61.32
21753;BME280;11038;50.940;20.564;2022-07-23T01:30:39;97829.53;;;22.92;61.66
21753;BME280;11038;50.940;20.564;2022-07-23T01:32:11;97828.69;;;22.92;61.44
21753;BME280;11038;50.940;20.564;2022-07-23T01:33:44;97834.13;;;22.92;61.55
21753;BME280;11038;50.940;20.564;2022-07-23T01:35:16;97834.63;;;22.88;62.18
21753;BME280;11038;50.940;20.564;2022-07-23T01:36:48;97832.16;;;22.87;62.02
21753;BME280;11038;50.940;20.564;2022-07-23T01:38:20;97827.03;;;22.91;62.08
21753;BME280;11038;50.940;20.564;2022-07-23T01:39:52;97830.59;;;22.91;62.21
21753;BME280;11038;50.940;20.564;2022-07-23T01:41:25;97835.81;;;22.93;61.97
21753;BME280;11038;50.940;20.564;2022-07-23T01:42:57;97831.75;;;22.95;62.09
21753;BME280;11038;50.940;20.564;2022-07-23T01:44:31;97837.91;;;22.91;62.09
21753;BME280;11038;50.940;20.564;2022-07-23T01:46:04;97844.00;;;22.63;63.64
21753;BME280;11038;50.940;20.564;2022-07-23T01:47:36;97839.22;;;22.36;64.88
21753;BME280;11038;50.940;20.564;2022-07-23T01:49:08;97850.22;;;22.12;66.33
21753;BME280;11038;50.940;20.564;2022-07-23T01:50:41;97854.50;;;22.08;66.59
21753;BME280;11038;50.940;20.564;2022-07-23T01:52:13;97849.16;;;22.13;67.18
21753;BME280;11038;50.940;20.564;2022-07-23T01:53:45;97846.44;;;22.13;66.83
21753;BME280;11038;50.940;20.564;2022-07-23T01:55:17;97850.22;;;22.12;66.69
21753;BME280;11038;50.940;20.564;2022-07-23T01:56:50;97854.00;;;22.11;66.90
21753;BME280;11038;50.940;20.564;2022-07-23T01:58:22;97846.44;;;22.13;66.72
21753;BME280;11038;50.940;20.564;2022-07-23T01:59:54;97848.91;;;22.15;66.21
21753;BME280;11038;50.940;20.564;2022-07-23T02:01:26;97842.63;;;22.14;66.22
21753;BME280;11038;50.940;20.564;2022-07-23T02:02:59;97845.94;;;22.16;66.09
21753;BME280;11038;50.940;20.564;2022-07-23T02:04:31;97841.81;;;22.14;66.33
21753;BME280;11038;50.940;20.564;2022-07-23T02:06:05;97842.06;;;22.12;65.95
21753;BME280;11038;50.940;20.564;2022-07-23T02:07:37;97841.00;;;22.13;66.02
21753;BME280;11038;50.940;20.564;2022-07-23T02:09:09;97841.00;;;22.13;66.09
21753;BME280;11038;50.940;20.564;2022-07-23T02:10:41;97839.91;;;22.14;65.87
21753;BME280;11038;50.940;20.564;2022-07-23T02:12:14;97834.63;;;22.07;65.75
21753;BME280;11038;50.940;20.564;2022-07-23T02:13:46;97838.75;;;22.10;66.05
21753;BME280;11038;50.940;20.564;2022-07-23T02:15:18;97831.22;;;22.00;66.61
21753;BME280;11038;50.940;20.564;2022-07-23T02:16:50;97834.19;;;21.98;66.57
21753;BME280;11038;50.940;20.564;2022-07-23T02:18:22;97829.59;;;21.99;66.18
21753;BME280;11038;50.940;20.564;2022-07-23T02:19:55;97825.31;;;22.03;66.55
21753;BME280;11038;50.940;20.564;2022-07-23T02:21:27;97825.88;;;22.05;66.29
21753;BME280;11038;50.940;20.564;2022-07-23T02:22:59;97817.00;;;22.10;66.07
21753;BME280;11038;50.940;20.564;2022-07-23T02:24:31;97824.47;;;22.03;66.08
21753;BME280;11038;50.940;20.564;2022-07-23T02:26:03;97827.19;;;22.03;66.53
21753;BME280;11038;50.940;20.564;2022-07-23T02:27:36;97816.56;;;22.01;66.61
21753;BME280;11038;50.940;20.564;2022-07-23T02:29:08;97820.34;;;22.00;66.60
21753;BME280;11038;50.940;20.564;2022-07-23T02:30:41;97822.84;;;22.01;66.29
21753;BME280;11038;50.940;20.564;2022-07-23T02:32:13;97817.88;;;21.98;66.50
21753;BME280;11038;50.940;20.564;2022-07-23T02:33:45;97815.66;;;21.95;66.64
21753;BME280;11038;50.940;20.564;2022-07-23T02:35:17;97813.75;;;21.96;66.59
21753;BME280;11038;50.940;20.564;2022-07-23T02:36:49;97822.16;;;21.94;66.68
21753;BME280;11038;50.940;20.564;2022-07-23T02:38:21;97818.84;;;21.92;66.31
21753;BME280;11038;50.940;20.564;2022-07-23T02:39:54;97825.13;;;21.93;66.17
21753;BME280;11038;50.940;20.564;2022-07-23T02:41:26;97821.44;;;21.87;66.53
21753;BME280;11038;50.940;20.564;2022-07-23T02:42:58;97821.56;;;21.92;66.53
21753;BME280;11038;50.940;20.564;2022-07-23T02:44:31;97817.69;;;21.88;66.59
21753;BME280;11038;50.940;20.564;2022-07-23T02:46:06;97827.47;;;21.89;66.42
21753;BME280;11038;50.940;20.564;2022-07-23T02:47:39;97816.00;;;21.87;65.96
21753;BME280;11038;50.940;20.564;2022-07-23T02:49:11;97823.00;;;21.83;66.40
21753;BME280;11038;50.940;20.564;2022-07-23T02:50:43;97824.91;;;21.82;65.86
21753;BME280;11038;50.940;20.564;2022-07-23T02:52:16;97821.81;;;21.78;65.83
21753;BME280;11038;50.940;20.564;2022-07-23T02:53:48;97827.84;;;21.81;65.89
21753;BME280;11038;50.940;20.564;2022-07-23T02:55:20;97823.00;;;21.83;65.96
21753;BME280;11038;50.940;20.564;2022-07-23T02:56:52;97828.44;;;21.83;66.10
21753;BME280;11038;50.940;20.564;2022-07-23T02:58:24;97833.06;;;21.82;66.07
21753;BME280;11038;50.940;20.564;2022-07-23T02:59:58;97833.63;;;21.84;66.34
21753;BME280;11038;50.940;20.564;2022-07-23T03:01:30;97835.28;;;21.85;65.87
21753;BME280;11038;50.940;20.564;2022-07-23T03:03:02;97832.31;;;21.87;65.96
21753;BME280;11038;50.940;20.564;2022-07-23T03:04:37;97834.59;;;21.90;66.12
21753;BME280;11038;50.940;20.564;2022-07-23T03:06:10;97836.13;;;21.86;66.75
21753;BME280;11038;50.940;20.564;2022-07-23T03:07:42;97831.66;;;21.79;67.36
21753;BME280;11038;50.940;20.564;2022-07-23T03:09:14;97832.81;;;21.84;67.25
21753;BME280;11038;50.940;20.564;2022-07-23T03:10:47;97833.41;;;21.86;67.25
21753;BME280;11038;50.940;20.564;2022-07-23T03:12:19;97829.41;;;21.88;66.81
21753;BME280;11038;50.940;20.564;2022-07-23T03:13:51;97826.44;;;21.90;67.05
21753;BME280;11038;50.940;20.564;2022-07-23T03:15:23;97825.47;;;21.96;66.93
21753;BME280;11038;50.940;20.564;2022-07-23T03:16:55;97828.28;;;22.01;66.96
21753;BME280;11038;50.940;20.564;2022-07-23T03:18:30;97822.94;;;22.07;66.91
21753;BME280;11038;50.940;20.564;2022-07-23T03:20:02;97827.97;;;22.15;66.56
21753;BME280;11038;50.940;20.564;2022-07-23T03:21:35;97821.88;;;22.25;66.33
21753;BME280;11038;50.940;20.564;2022-07-23T03:23:10;97830.47;;;22.34;66.46
21753;BME280;11038;50.940;20.564;2022-07-23T03:24:43;97831.97;;;22.42;66.33
21753;BME280;11038;50.940;20.564;2022-07-23T03:26:27;97830.50;;;22.51;66.05
21753;BME280;11038;50.940;20.564;2022-07-23T03:27:59;97826.53;;;22.59;65.80
21753;BME280;11038;50.940;20.564;2022-07-23T03:29:32;97828.25;;;22.65;65.72
21753;BME280;11038;50.940;20.564;2022-07-23T03:31:04;97822.06;;;22.70;65.00
21753;BME280;11038;50.940;20.564;2022-07-23T03:32:37;97822.53;;;22.79;64.68
21753;BME280;11038;50.940;20.564;2022-07-23T03:34:09;97827.78;;;22.86;64.09
21753;BME280;11038;50.940;20.564;2022-07-23T03:35:41;97825.47;;;22.95;63.93
21753;BME280;11038;50.940;20.564;2022-07-23T03:37:14;97832.72;;;23.06;63.74
21753;BME280;11038;50.940;20.564;2022-07-23T03:38:47;97826.81;;;23.15;63.09
21753;BME280;11038;50.940;20.564;2022-07-23T03:40:19;97835.22;;;23.30;63.27
21753;BME280;11038;50.940;20.564;2022-07-23T03:41:51;97837.56;;;23.44;62.93
21753;BME280;11038;50.940;20.564;2022-07-23T03:43:23;97843.25;;;23.60;62.72
21753;BME280;11038;50.940;20.564;2022-07-23T03:44:57;97842.09;;;23.78;62.22
21753;BME280;11038;50.940;20.564;2022-07-23T03:46:29;97837.63;;;23.94;61.94
21753;BME280;11038;50.940;20.564;2022-07-23T03:48:02;97839.44;;;24.11;61.88
21753;BME280;11038;50.940;20.564;2022-07-23T03:49:34;97841.28;;;24.28;61.47
21753;BME280;11038;50.940;20.564;2022-07-23T03:51:06;97845.28;;;24.48;60.73
21753;BME280;11038;50.940;20.564;2022-07-23T03:52:39;97842.47;;;24.70;60.05
21753;BME280;11038;50.940;20.564;2022-07-23T03:54:11;97849.41;;;24.88;59.32
21753;BME280;11038;50.940;20.564;2022-07-23T03:55:43;97838.38;;;25.06;58.40
21753;BME280;11038;50.940;20.564;2022-07-23T03:57:16;97838.16;;;25.18;58.20
21753;BME280;11038;50.940;20.564;2022-07-23T03:58:48;97840.16;;;25.33;57.01
21753;BME280;11038;50.940;20.564;2022-07-23T04:00:20;97843.25;;;25.52;56.18
21753;BME280;11038;50.940;20.564;2022-07-23T04:01:52;97842.75;;;25.66;55.51
21753;BME280;11038;50.940;20.564;2022-07-23T04:03:24;97833.53;;;25.83;54.14
21753;BME280;11038;50.940;20.564;2022-07-23T04:04:57;97828.38;;;26.07;54.57
21753;BME280;11038;50.940;20.564;2022-07-23T04:06:29;97833.06;;;26.28;53.30
21753;BME280;11038;50.940;20.564;2022-07-23T04:08:01;97834.22;;;26.53;53.41
21753;BME280;11038;50.940;20.564;2022-07-23T04:09:34;97833.94;;;26.70;53.00
21753;BME280;11038;50.940;20.564;2022-07-23T04:11:06;97832.81;;;26.87;52.38
21753;BME280;11038;50.940;20.564;2022-07-23T04:12:38;97827.56;;;27.06;52.19
21753;BME280;11038;50.940;20.564;2022-07-23T04:14:11;97835.22;;;27.25;51.49
21753;BME280;11038;50.940;20.564;2022-07-23T04:15:43;97833.03;;;27.33;51.98
21753;BME280;11038;50.940;20.564;2022-07-23T04:17:15;97834.59;;;27.55;51.26
21753;BME280;11038;50.940;20.564;2022-07-23T04:18:48;97833.69;;;27.70;51.45
21753;BME280;11038;50.940;20.564;2022-07-23T04:20:20;97831.41;;;27.98;50.05
21753;BME280;11038;50.940;20.564;2022-07-23T04:21:52;97830.44;;;28.18;49.57
21753;BME280;11038;50.940;20.564;2022-07-23T04:23:25;97827.88;;;28.33;48.87
21753;BME280;11038;50.940;20.564;2022-07-23T04:24:57;97830.81;;;28.47;49.82
21753;BME280;11038;50.940;20.564;2022-07-23T04:26:30;97835.06;;;28.63;49.91
21753;BME280;11038;50.940;20.564;2022-07-23T04:28:02;97833.00;;;28.80;50.43
21753;BME280;11038;50.940;20.564;2022-07-23T04:29:35;97826.00;;;28.93;49.17
21753;BME280;11038;50.940;20.564;2022-07-23T04:31:07;97825.28;;;29.12;47.42
21753;BME280;11038;50.940;20.564;2022-07-23T04:32:40;97832.78;;;29.31;47.12
21753;BME280;11038;50.940;20.564;2022-07-23T04:34:12;97833.13;;;29.48;46.48
21753;BME280;11038;50.940;20.564;2022-07-23T04:35:44;97835.63;;;29.69;46.15
21753;BME280;11038;50.940;20.564;2022-07-23T04:37:17;97842.09;;;29.84;45.76
21753;BME280;11038;50.940;20.564;2022-07-23T04:38:49;97841.34;;;29.98;45.09
21753;BME280;11038;50.940;20.564;2022-07-23T04:40:23;97848.28;;;30.14;44.16
21753;BME280;11038;50.940;20.564;2022-07-23T04:41:56;97850.78;;;30.30;43.87
21753;BME280;11038;50.940;20.564;2022-07-23T04:43:28;97845.28;;;30.49;43.72
21753;BME280;11038;50.940;20.564;2022-07-23T04:45:00;97848.28;;;30.67;43.63
21753;BME280;11038;50.940;20.564;2022-07-23T04:46:33;97849.75;;;30.79;42.81
21753;BME280;11038;50.940;20.564;2022-07-23T04:48:05;97848.03;;;30.83;41.56
21753;BME280;11038;50.940;20.564;2022-07-23T04:49:38;97848.47;;;30.90;41.67
21753;BME280;11038;50.940;20.564;2022-07-23T04:51:10;97845.25;;;31.02;41.58
21753;BME280;11038;50.940;20.564;2022-07-23T04:52:42;97850.84;;;31.11;44.25
21753;BME280;11038;50.940;20.564;2022-07-23T04:54:14;97855.16;;;31.18;42.22
21753;BME280;11038;50.940;20.564;2022-07-23T04:55:48;97847.94;;;31.22;41.49
21753;BME280;11038;50.940;20.564;2022-07-23T04:57:21;97841.59;;;31.21;41.73
21753;BME280;11038;50.940;20.564;2022-07-23T04:58:53;97843.22;;;31.22;41.86
21753;BME280;11038;50.940;20.564;2022-07-23T05:00:25;97826.56;;;31.27;41.20
21753;BME280;11038;50.940;20.564;2022-07-23T05:01:57;97838.00;;;31.21;45.34
21753;BME280;11038;50.940;20.564;2022-07-23T05:03:30;97846.25;;;31.07;46.76
21753;BME280;11038;50.940;20.564;2022-07-23T05:05:03;97845.94;;;30.94;46.14
21753;BME280;11038;50.940;20.564;2022-07-23T05:06:35;97833.44;;;30.82;45.54
21753;BME280;11038;50.940;20.564;2022-07-23T05:08:08;97839.38;;;30.56;45.93
21753;BME280;11038;50.940;20.564;2022-07-23T05:09:41;97834.91;;;30.60;45.87
21753;BME280;11038;50.940;20.564;2022-07-23T05:11:13;97838.41;;;30.66;45.12
21753;BME280;11038;50.940;20.564;2022-07-23T05:12:45;97841.63;;;30.54;44.92
21753;BME280;11038;50.940;20.564;2022-07-23T05:14:17;97833.84;;;30.56;44.91
21753;BME280;11038;50.940;20.564;2022-07-23T05:15:50;97835.69;;;30.47;45.46
21753;BME280;11038;50.940;20.564;2022-07-23T05:17:22;97832.09;;;30.46;44.51
21753;BME280;11038;50.940;20.564;2022-07-23T05:18:54;97833.44;;;30.49;44.45
21753;BME280;11038;50.940;20.564;2022-07-23T05:20:27;97837.25;;;30.53;44.20
21753;BME280;11038;50.940;20.564;2022-07-23T05:21:59;97839.09;;;30.58;45.25
21753;BME280;11038;50.940;20.564;2022-07-23T05:23:31;97832.63;;;30.48;44.85
21753;BME280;11038;50.940;20.564;2022-07-23T05:25:04;97833.00;;;30.42;44.53
21753;BME280;11038;50.940;20.564;2022-07-23T05:26:37;97833.66;;;30.53;44.55
21753;BME280;11038;50.940;20.564;2022-07-23T05:28:09;97834.09;;;30.60;44.75
21753;BME280;11038;50.940;20.564;2022-07-23T05:29:41;97832.06;;;30.66;43.58
21753;BME280;11038;50.940;20.564;2022-07-23T05:31:14;97838.22;;;30.77;40.20
21753;BME280;11038;50.940;20.564;2022-07-23T05:32:46;97837.22;;;30.87;41.71
21753;BME280;11038;50.940;20.564;2022-07-23T05:34:21;97840.94;;;30.96;42.74
21753;BME280;11038;50.940;20.564;2022-07-23T05:35:53;97836.97;;;30.35;45.27
21753;BME280;11038;50.940;20.564;2022-07-23T05:37:26;97847.13;;;30.15;46.44
21753;BME280;11038;50.940;20.564;2022-07-23T05:38:59;97847.53;;;30.47;44.71
21753;BME280;11038;50.940;20.564;2022-07-23T05:40:31;97846.19;;;30.25;45.61
21753;BME280;11038;50.940;20.564;2022-07-23T05:42:05;97848.50;;;29.99;46.05
21753;BME280;11038;50.940;20.564;2022-07-23T05:43:37;97852.06;;;30.19;47.67
21753;BME280;11038;50.940;20.564;2022-07-23T05:45:10;97852.22;;;30.08;46.74
21753;BME280;11038;50.940;20.564;2022-07-23T05:46:43;97849.44;;;30.27;47.52
21753;BME280;11038;50.940;20.564;2022-07-23T05:48:15;97844.63;;;30.00;48.89
21753;BME280;11038;50.940;20.564;2022-07-23T05:49:47;97842.53;;;30.30;48.40
21753;BME280;11038;50.940;20.564;2022-07-23T05:51:22;97845.19;;;30.16;49.46
21753;BME280;11038;50.940;20.564;2022-07-23T05:52:55;97846.38;;;30.29;49.31
21753;BME280;11038;50.940;20.564;2022-07-23T05:54:27;97847.63;;;30.42;49.28
21753;BME280;11038;50.940;20.564;2022-07-23T05:55:59;97843.34;;;30.50;49.29
21753;BME280;11038;50.940;20.564;2022-07-23T05:57:32;97839.38;;;30.56;49.17
21753;BME280;11038;50.940;20.564;2022-07-23T05:59:04;97838.25;;;30.57;49.08
21753;BME280;11038;50.940;20.564;2022-07-23T06:00:38;97846.56;;;30.38;49.81
21753;BME280;11038;50.940;20.564;2022-07-23T06:02:10;97839.38;;;30.56;49.08
21753;BME280;11038;50.940;20.564;2022-07-23T06:03:43;97845.75;;;30.37;48.62
21753;BME280;11038;50.940;20.564;2022-07-23T06:05:15;97841.78;;;30.05;48.11
21753;BME280;11038;50.940;20.564;2022-07-23T06:06:47;97837.47;;;29.99;48.69
21753;BME280;11038;50.940;20.564;2022-07-23T06:08:19;97845.34;;;30.25;45.01
21753;BME280;11038;50.940;20.564;2022-07-23T06:09:52;97842.31;;;30.46;44.97
21753;BME280;11038;50.940;20.564;2022-07-23T06:11:24;97840.44;;;30.94;45.17
21753;BME280;11038;50.940;20.564;2022-07-23T06:12:56;97838.63;;;31.46;43.44
21753;BME280;11038;50.940;20.564;2022-07-23T06:14:33;97844.13;;;31.18;42.96
21753;BME280;11038;50.940;20.564;2022-07-23T06:16:06;97843.94;;;30.80;43.46
21753;BME280;11038;50.940;20.564;2022-07-23T06:17:39;97845.84;;;30.99;42.92
21753;BME280;11038;50.940;20.564;2022-07-23T06:19:11;97843.91;;;31.00;44.41
21753;BME280;11038;50.940;20.564;2022-07-23T06:20:44;97845.16;;;30.74;45.02
21753;BME280;11038;50.940;20.564;2022-07-23T06:22:22;97849.97;;;30.49;45.52
21753;BME280;11038;50.940;20.564;2022-07-23T06:23:54;97849.69;;;30.50;46.67
21753;BME280;11038;50.940;20.564;2022-07-23T06:25:27;97849.06;;;30.54;45.36
21753;BME280;11038;50.940;20.564;2022-07-23T06:26:59;97848.63;;;29.88;47.24
21753;BME280;11038;50.940;20.564;2022-07-23T06:28:32;97850.94;;;29.81;46.88
21753;BME280;11038;50.940;20.564;2022-07-23T06:30:05;97843.69;;;29.85;48.14
21753;BME280;11038;50.940;20.564;2022-07-23T06:31:40;97847.22;;;30.82;46.13
21753;BME280;11038;50.940;20.564;2022-07-23T06:33:12;97845.38;;;31.40;44.60
21753;BME280;11038;50.940;20.564;2022-07-23T06:34:45;97850.56;;;31.13;44.81
21753;BME280;11038;50.940;20.564;2022-07-23T06:36:20;97842.41;;;31.22;44.78
21753;BME280;11038;50.940;20.564;2022-07-23T06:37:52;97837.81;;;31.74;44.71
21753;BME280;11038;50.940;20.564;2022-07-23T06:39:25;97830.22;;;32.31;43.35
21753;BME280;11038;50.940;20.564;2022-07-23T06:40:57;97837.56;;;32.35;41.37
21753;BME280;11038;50.940;20.564;2022-07-23T06:42:29;97841.34;;;31.03;43.46
21753;BME280;11038;50.940;20.564;2022-07-23T06:44:02;97839.53;;;30.46;41.81
21753;BME280;11038;50.940;20.564;2022-07-23T06:45:34;97838.22;;;30.77;42.34
21753;BME280;11038;50.940;20.564;2022-07-23T06:47:07;97829.63;;;30.78;43.71
21753;BME280;11038;50.940;20.564;2022-07-23T06:48:39;97836.38;;;30.72;42.95
21753;BME280;11038;50.940;20.564;2022-07-23T06:50:12;97829.63;;;30.78;43.78
21753;BME280;11038;50.940;20.564;2022-07-23T06:51:44;97835.13;;;31.12;44.62
21753;BME280;11038;50.940;20.564;2022-07-23T06:53:17;97831.56;;;31.25;44.35
21753;BME280;11038;50.940;20.564;2022-07-23T06:54:50;97829.84;;;31.30;44.80
21753;BME280;11038;50.940;20.564;2022-07-23T06:56:22;97822.78;;;31.09;45.06
21753;BME280;11038;50.940;20.564;2022-07-23T06:57:54;97819.50;;;31.78;43.88
21753;BME280;11038;50.940;20.564;2022-07-23T06:59:27;97823.09;;;32.15;43.71
21753;BME280;11038;50.940;20.564;2022-07-23T07:00:59;97825.13;;;32.47;43.21
21753;BME280;11038;50.940;20.564;2022-07-23T07:02:31;97819.47;;;32.29;41.90
21753;BME280;11038;50.940;20.564;2022-07-23T07:04:04;97818.75;;;31.86;38.24
21753;BME280;11038;50.940;20.564;2022-07-23T07:05:36;97824.31;;;31.58;40.36
21753;BME280;11038;50.940;20.564;2022-07-23T07:07:09;97820.31;;;31.36;41.65
21753;BME280;11038;50.940;20.564;2022-07-23T07:08:41;97823.31;;;30.78;41.79
21753;BME280;11038;50.940;20.564;2022-07-23T07:10:15;97824.69;;;30.94;40.34
21753;BME280;11038;50.940;20.564;2022-07-23T07:11:49;97822.22;;;30.93;40.49
21753;BME280;11038;50.940;20.564;2022-07-23T07:13:21;97827.22;;;30.91;41.88
21753;BME280;11038;50.940;20.564;2022-07-23T07:14:54;97822.41;;;30.82;43.56
21753;BME280;11038;50.940;20.564;2022-07-23T07:16:26;97825.03;;;30.74;42.50
21753;BME280;11038;50.940;20.564;2022-07-23T07:18:04;97822.75;;;30.95;41.75
21753;BME280;11038;50.940;20.564;2022-07-23T07:19:36;97825.72;;;30.65;40.89
21753;BME280;11038;50.940;20.564;2022-07-23T07:21:09;97831.28;;;30.79;41.23
21753;BME280;11038;50.940;20.564;2022-07-23T07:22:41;97828.34;;;30.90;43.46
21753;BME280;11038;50.940;20.564;2022-07-23T07:24:13;97829.47;;;30.89;41.76
21753;BME280;11038;50.940;20.564;2022-07-23T07:25:46;97829.41;;;30.94;40.79
21753;BME280;11038;50.940;20.564;2022-07-23T07:27:19;97829.31;;;30.66;42.32
21753;BME280;11038;50.940;20.564;2022-07-23T07:28:51;97835.03;;;30.69;42.68
21753;BME280;11038;50.940;20.564;2022-07-23T07:30:24;97822.50;;;30.77;41.70
21753;BME280;11038;50.940;20.564;2022-07-23T07:32:03;97832.47;;;30.73;40.99
21753;BME280;11038;50.940;20.564;2022-07-23T07:33:35;97827.81;;;30.88;43.19
21753;BME280;11038;50.940;20.564;2022-07-23T07:35:08;97827.91;;;30.82;41.37
21753;BME280;11038;50.940;20.564;2022-07-23T07:36:41;97826.28;;;31.57;41.51
21753;BME280;11038;50.940;20.564;2022-07-23T07:38:15;97824.66;;;31.56;41.05
21753;BME280;11038;50.940;20.564;2022-07-23T07:39:47;97824.00;;;31.74;39.50
21753;BME280;11038;50.940;20.564;2022-07-23T07:41:19;97833.50;;;31.11;40.65
21753;BME280;11038;50.940;20.564;2022-07-23T07:42:55;97831.03;;;31.09;41.23
21753;BME280;11038;50.940;20.564;2022-07-23T07:44:28;97825.84;;;31.36;42.86
21753;BME280;11038;50.940;20.564;2022-07-23T07:46:01;97828.41;;;31.60;42.22
21753;BME280;11038;50.940;20.564;2022-07-23T07:47:33;97828.69;;;31.87;41.14
21753;BME280;11038;50.940;20.564;2022-07-23T07:49:05;97829.53;;;32.25;40.20
21753;BME280;11038;50.940;20.564;2022-07-23T07:50:38;97831.47;;;32.24;40.75
21753;BME280;11038;50.940;20.564;2022-07-23T07:52:11;97819.44;;;32.06;41.54
21753;BME280;11038;50.940;20.564;2022-07-23T07:53:43;97824.69;;;32.77;39.74
21753;BME280;11038;50.940;20.564;2022-07-23T07:55:17;97824.38;;;32.55;40.79
21753;BME280;11038;50.940;20.564;2022-07-23T07:56:49;97824.75;;;32.17;39.91
21753;BME280;11038;50.940;20.564;2022-07-23T07:58:24;97813.88;;;32.20;42.02
21753;BME280;11038;50.940;20.564;2022-07-23T07:59:56;97822.31;;;32.93;39.61
21753;BME280;11038;50.940;20.564;2022-07-23T08:01:37;97814.50;;;33.27;38.62
21753;BME280;11038;50.940;20.564;2022-07-23T08:03:09;97825.03;;;33.16;37.25
21753;BME280;11038;50.940;20.564;2022-07-23T08:04:41;97820.06;;;32.95;39.05